Terminal Aerodrome Forecast
Issued by NWS

Home | Current Version | Previous Version | Text Only | Print | Product List | Glossary On
Versions: 1 2 3 4 5 6 7 8 9 10 11 12 13 14 15 16 17
000
FTUS43 KICT 241700
TAFHUT
TAF
KHUT 241734Z 2418/2518 16014G20KT P6SM SKC
     FM242000 18018G25KT P6SM SKC
     FM250000 16012KT P6SM SCT250
     FM251200 19012KT P6SM BKN250
     FM251500 21015G25KT P6SM BKN250=

USA.gov is the U.S. government's official web portal to all federal, state and local government web resources and services.